• Join FlightAware (Why Join?)
  • Login
  • US Flag 
09:09AM EDT


 

Airport Tracker/Info


-or-


 

Live Flight TrackerFlight Track Log ✈ USC105 ✈ 31-Jan-2014 ✈ KDPA - KYIP

Flight Track Log - Related Links

Times and Time Zones

All times are in EST time to prevent confusion due to time zone crossing. See the USC105 flight status page for this flight to view local times or setup timezone preferences in your user account.

Time Position Orientation Groundspeed Altitude Reporting Facility
EST Latitude Longitude Course Direction KTS MPH feet Rate Location/Type
06:41AM 41.9000 -88.2000 143° Southeast 135 155 2,200  Level Chicago TRACON
06:42AM 41.8833 -88.1833 143° Southeast 135 155 3,700 900 Climbing Chicago TRACON
06:43AM 41.8333 -88.1500 154° Southeast 180 207 4,000 120 Climbing Chicago TRACON
06:44AM 41.8000 -88.1000 132° Southeast 198 228 4,000  Level Chicago TRACON
06:45AM 41.7500 -88.0167 129° Southeast 201 231 4,000  Level Chicago TRACON
06:46AM 41.7500 -87.9500 90° East 197 227 4,000 240 Level Chicago TRACON
06:47AM 41.7500 -87.8833 90° East 181 208 4,500 480 Climbing Chicago TRACON
06:48AM 41.7500 -87.8167 90° East 182 209 5,000 240 Climbing Chicago TRACON
06:49AM 41.7500 -87.7500 90° East 200 230 5,000  Level Chicago TRACON
06:50AM 41.7500 -87.6833 90° East 204 235 5,000  Level Chicago TRACON
06:51AM 41.7500 -87.6167 90° East 204 235 5,000  Level Chicago TRACON
06:52AM 41.7500 -87.5500 90° East 205 236 5,000  Level Chicago TRACON
06:53AM 41.7500 -87.4667 90° East 204 235 5,100 240 Climbing Chicago TRACON
06:54AM 41.7547 -87.4239 82° East 155 178 5,500 480 Climbing Chicago Center
06:55AM 41.7558 -87.3542 89° East 186 214 6,000 240 Climbing Chicago Center
06:56AM 41.7533 -87.2769 92° East 200 230 6,000  Level Chicago Center
06:57AM 41.7528 -87.1836 90° East 210 242 6,000  Level Chicago Center
06:58AM 41.7544 -87.1050 88° East 211 243 6,000  Level Chicago Center
06:59AM 41.7550 -87.0267 89° East 211 243 6,000 240 Level Chicago Center
07:00AM 41.7656 -86.9544 79° East 203 234 6,500 420 Climbing Chicago Center
07:01AM 41.7792 -86.8808 76° East 202 232 6,900 240 Climbing Chicago Center
07:02AM 41.7922 -86.8033 77° East 209 241 7,000  Climbing Chicago Center
07:03AM 41.8064 -86.7231 77° East 219 252 7,000  Level Chicago Center
07:04AM 41.8217 -86.6436 76° East 220 253 7,000  Level Chicago Center
07:05AM 41.8336 -86.5633 79° East 220 253 7,000  Level Chicago Center
07:06AM 41.8464 -86.4833 78° East 220 253 7,000  Level Chicago Center
07:07AM 41.8603 -86.4031 77° East 222 255 7,000  Level Chicago Center
07:08AM 41.8736 -86.3222 77° East 222 255 7,000  Level Chicago Center
07:09AM 41.8867 -86.2425 78° East 221 254 7,000  Level Chicago Center
07:10AM 41.8969 -86.1614 80° East 219 252 7,000  Level Chicago Center
07:11AM 41.9092 -86.0811 78° East 220 253 7,000  Level Chicago Center
07:12AM 41.9214 -85.9992 79° East 223 257 7,000  Level Chicago Center
07:13AM 41.9336 -85.9183 78° East 221 254 7,000  Level Chicago Center
07:14AM 41.9464 -85.8367 78° East 223 257 7,000  Level Chicago Center
07:15AM 41.9589 -85.7547 78° East 223 257 7,000  Level Chicago Center
07:16AM 41.9711 -85.6733 79° East 223 257 7,000  Level Chicago Center
07:17AM 41.9825 -85.5903 80° East 224 258 7,000  Level Chicago Center
07:18AM 41.9936 -85.5078 80° East 225 259 7,000  Level Chicago Center
07:19AM 42.0050 -85.4247 80° East 225 259 7,000  Level Chicago Center
07:20AM 42.0156 -85.3411 80° East 226 260 7,000  Level Chicago Center
07:21AM 42.0261 -85.2586 80° East 224 258 7,000  Level Chicago Center
07:22AM 42.0361 -85.1761 81° East 223 257 7,000  Level Chicago Center
07:23AM 42.0456 -85.0928 81° East 225 259 7,000  Level Chicago Center
07:24AM 42.0547 -85.0097 82° East 225 259 7,000  Level Chicago Center
07:25AM 42.0678 -84.9108 80° East 224 258 7,000  Level Chicago Center
07:26AM 42.0764 -84.8283 82° East 223 257 7,000  Level Chicago Center
07:27AM 42.0869 -84.7450 80° East 225 259 7,100  Climbing Chicago Center
07:28AM 42.0958 -84.6625 82° East 224 258 7,000 -60 Descending Chicago Center
07:29AM 42.1067 -84.5792 80° East 224 258 7,000  Level Chicago Center
07:30AM 42.1161 -84.4931 82° East 224 258 7,000  Level Chicago Center
07:31AM 42.1269 -84.4114 80° East 222 255 7,100  Climbing Chicago Center
07:32AM 42.1372 -84.3294 80° East 222 255 7,100  Level Chicago Center
07:33AM 42.1422 -84.2736 83° East 225 259 7,100  Level Cleveland Center
07:33AM 42.1494 -84.2286 78° East 224 258 7,100  Level Cleveland Center
07:34AM 42.1542 -84.1825 82° East 226 260 7,100  Level Cleveland Center
07:35AM 42.1597 -84.1458 78° East 224 258 7,100 -120 Level Cleveland Center
07:35AM 42.1633 -84.0994 84° East 229 264 7,000 -300 Descending Cleveland Center
07:36AM 42.1703 -84.0614 76° East 225 259 6,800 -360 Descending Cleveland Center
07:36AM 42.1742 -84.0192 83° East 235 270 6,700 -300 Descending Cleveland Center
07:37AM 42.1800 -83.9750 80° East 231 266 6,500 -660 Descending Cleveland Center
07:37AM 42.1900 -83.9314 73° East 223 257 6,000 -1,020 Descending Cleveland Center
07:38AM 42.2053 -83.8811 68° East 226 260 5,500 -840 Descending Cleveland Center
07:38AM 42.2108 -83.8556 74° East 223 257 5,200 -720 Descending Cleveland Center
07:39AM 42.2272 -83.8075 65° Northeast 221 254 4,800 -780 Descending Cleveland Center
07:39AM 42.2333 -83.7883 67° East 203 234 4,500 -780 Descending Cleveland Center
07:40AM 42.2542 -83.7414 59° Northeast 210 242 4,000 -840 Descending Cleveland Center
07:40AM 42.2633 -83.7281 47° Northeast 198 228 3,700 -900 Descending Cleveland Center
07:41AM 42.2942 -83.6894 43° Northeast 207 238 3,100 -540 Descending Cleveland Center
07:41AM 42.3100 -83.6697 43° Northeast 192 221 3,100  Level Cleveland Center
07:42AM 42.3306 -83.6411 46° Northeast 194 223 3,100  Level Cleveland Center
07:42AM 42.3450 -83.6242 41° Northeast 175 201 3,100  Level Cleveland Center
07:43AM 42.3642 -83.5944 49° Northeast 180 207 3,100 -240 Level Cleveland Center
07:43AM 42.3658 -83.5733 84° East 183 211 2,900 -780 Descending Cleveland Center
07:44AM 42.3633 -83.5228 94° East 189 217 2,300 -720 Descending Cleveland Center
07:44AM 42.3569 -83.5014 112° Southeast 181 208 2,200 -300 Descending Cleveland Center
07:45AM 42.3392 -83.4633 122° Southeast 182 209 2,000 -300 Descending Cleveland Center
07:45AM 42.3242 -83.4628 178° South 170 196 1,900 -300 Descending Cleveland Center
07:46AM 42.2953 -83.4731 195° South 169 194 1,700 -240 Descending Cleveland Center
07:46AM 42.2856 -83.4772 198° South 154 177 1,700 -420 Level Cleveland Center
07:47AM 42.2600 -83.4961 209° Southwest 156 180 1,300 -600 Descending Cleveland Center
07:47AM 42.2539 -83.5064 231° Southwest 106 122 1,000 -600 Descending Cleveland Center
07:48AM 42.2414 -83.5242 226° Southwest 122 140 700 -420 Descending Cleveland Center